createdAt,value
2022-10-19T00:02:17.503Z,3.40
2022-10-19T00:04:44.527Z,3.07
2022-10-19T00:07:10.930Z,3.00
2022-10-19T00:09:37.525Z,3.17
2022-10-19T00:12:03.918Z,2.97
2022-10-19T00:14:30.288Z,3.60
2022-10-19T00:16:58.073Z,3.17
2022-10-19T00:19:26.711Z,3.53
2022-10-19T00:21:53.377Z,3.10
2022-10-19T00:24:20.407Z,3.47
2022-10-19T00:26:47.178Z,3.53
2022-10-19T00:29:14.738Z,3.13
2022-10-19T00:31:41.698Z,3.03
2022-10-19T00:34:08.113Z,3.17
2022-10-19T00:36:37.611Z,3.03
2022-10-19T00:39:07.001Z,3.47
2022-10-19T00:41:35.686Z,3.63
2022-10-19T00:44:05.877Z,3.40
2022-10-19T00:46:34.997Z,3.35
2022-10-19T00:49:14.198Z,3.55
2022-10-19T00:51:43.864Z,3.88
2022-10-19T00:54:11.746Z,3.10
2022-10-19T00:56:41.001Z,3.13
2022-10-19T00:59:08.753Z,3.22
2022-10-19T01:01:35.163Z,3.50
2022-10-19T01:04:02.697Z,2.55
2022-10-19T01:06:29.480Z,3.33
2022-10-19T01:08:55.905Z,3.65
2022-10-19T01:11:32.757Z,3.28
2022-10-19T01:14:26.751Z,3.33
2022-10-19T01:17:30.854Z,3.17
2022-10-19T01:20:18.603Z,2.93
2022-10-19T01:23:10.299Z,3.00
2022-10-19T01:26:10.632Z,3.58
2022-10-19T01:28:54.537Z,3.30
2022-10-19T01:31:37.717Z,2.85
2022-10-19T01:34:14.908Z,3.23
2022-10-19T01:37:00.552Z,2.95
2022-10-19T01:39:45.222Z,3.22
2022-10-19T01:42:29.797Z,3.50
2022-10-19T01:45:02.807Z,3.40
2022-10-19T01:47:55.461Z,3.03
2022-10-19T01:50:33.936Z,2.80
2022-10-19T01:53:00.811Z,3.30
2022-10-19T01:55:27.715Z,2.65
2022-10-19T01:57:59.726Z,3.05
2022-10-19T02:00:28.061Z,3.10
2022-10-19T02:02:55.220Z,3.47
2022-10-19T02:05:27.021Z,3.28
2022-10-19T02:07:57.865Z,2.83
2022-10-19T02:10:25.745Z,2.65
2022-10-19T02:12:54.744Z,2.93
2022-10-19T02:15:24.874Z,3.40
2022-10-19T02:17:56.764Z,2.85
2022-10-19T02:20:23.848Z,2.75
2022-10-19T02:22:50.897Z,2.90
2022-10-19T02:25:17.456Z,2.70
2022-10-19T02:27:44.623Z,2.88
2022-10-19T02:30:14.264Z,3.20
2022-10-19T02:32:41.865Z,3.33
2022-10-19T02:35:09.541Z,3.00
2022-10-19T02:40:08.431Z,2.88
2022-10-19T02:42:50.989Z,2.95
2022-10-19T02:45:28.932Z,2.67
2022-10-19T02:48:00.422Z,2.90
2022-10-19T02:50:27.538Z,2.43
2022-10-19T02:52:53.898Z,2.47
2022-10-19T02:55:20.520Z,3.15
2022-10-19T02:57:47.000Z,2.65
2022-10-19T03:00:13.506Z,2.72
2022-10-19T03:02:39.866Z,2.63
2022-10-19T03:05:06.799Z,2.83
2022-10-19T03:07:33.540Z,2.60
2022-10-19T03:10:00.320Z,2.95
2022-10-19T03:12:26.802Z,2.90
2022-10-19T03:14:53.241Z,2.53
2022-10-19T03:17:19.763Z,2.58
2022-10-19T03:19:46.264Z,2.83
2022-10-19T03:22:14.892Z,2.60
2022-10-19T03:24:41.497Z,2.88
2022-10-19T03:27:07.876Z,2.70
2022-10-19T03:29:34.208Z,2.60
2022-10-19T03:32:00.529Z,2.55
2022-10-19T03:34:26.934Z,2.88
2022-10-19T03:36:53.261Z,2.15
2022-10-19T03:39:19.721Z,2.40
2022-10-19T03:41:46.295Z,2.20
2022-10-19T03:44:13.049Z,2.70
2022-10-19T03:46:39.939Z,2.72
2022-10-19T03:49:06.881Z,2.42
2022-10-19T03:51:33.623Z,2.70
2022-10-19T03:54:06.130Z,2.65
2022-10-19T03:56:34.072Z,2.63
2022-10-19T03:59:03.239Z,2.92
2022-10-19T04:01:41.222Z,2.05
2022-10-19T04:04:12.751Z,2.00
2022-10-19T04:06:41.678Z,2.03
2022-10-19T04:09:11.125Z,2.20
2022-10-19T04:11:37.697Z,2.15
2022-10-19T04:14:04.576Z,1.95
2022-10-19T04:16:31.855Z,2.10
2022-10-19T04:18:58.813Z,2.22
2022-10-19T04:21:28.185Z,2.10
2022-10-19T04:24:00.489Z,2.75
2022-10-19T04:26:27.226Z,2.60
2022-10-19T04:28:53.807Z,2.53
2022-10-19T04:31:20.332Z,2.22
2022-10-19T04:36:18.108Z,2.15
2022-10-19T04:38:44.649Z,2.08
2022-10-19T04:41:13.494Z,2.57
2022-10-19T04:43:39.940Z,2.22
2022-10-19T04:46:09.565Z,2.13
2022-10-19T04:48:37.647Z,2.47
2022-10-19T04:51:04.738Z,2.20
2022-10-19T04:53:31.488Z,1.93
2022-10-19T04:55:57.969Z,1.83
2022-10-19T04:58:24.544Z,1.95
2022-10-19T05:00:51.219Z,2.08
2022-10-19T05:03:17.746Z,2.08
2022-10-19T05:05:44.436Z,2.20
2022-10-19T05:08:11.096Z,1.92
2022-10-19T05:10:38.239Z,1.95
2022-10-19T05:13:05.080Z,2.08
2022-10-19T05:15:31.896Z,2.00
2022-10-19T05:17:58.441Z,2.13
2022-10-19T05:20:24.908Z,2.22
2022-10-19T05:22:51.687Z,1.85
2022-10-19T05:25:18.356Z,2.10
2022-10-19T05:27:44.887Z,2.05
2022-10-19T05:30:11.477Z,2.07
2022-10-19T05:32:37.819Z,1.92
2022-10-19T05:35:04.832Z,2.20
2022-10-19T05:37:31.382Z,2.40
2022-10-19T05:39:57.882Z,2.08
2022-10-19T05:42:24.299Z,1.90
2022-10-19T05:44:50.811Z,2.20
2022-10-19T05:47:17.152Z,2.50
2022-10-19T05:49:43.553Z,1.95
2022-10-19T05:52:09.877Z,2.10
2022-10-19T05:54:37.153Z,2.33
2022-10-19T05:57:03.765Z,2.10
2022-10-19T05:59:30.239Z,1.83
2022-10-19T06:01:56.684Z,1.95
2022-10-19T06:04:23.129Z,2.25
2022-10-19T06:06:49.478Z,2.20
2022-10-19T06:09:16.219Z,2.17
2022-10-19T06:11:43.021Z,1.88
2022-10-19T06:14:13.584Z,2.22
2022-10-19T06:16:40.062Z,1.80
2022-10-19T06:19:06.549Z,2.27
2022-10-19T06:21:34.218Z,2.42
2022-10-19T06:24:03.121Z,2.05
2022-10-19T06:26:30.897Z,2.17
2022-10-19T06:29:00.369Z,2.40
2022-10-19T06:31:32.235Z,1.87
2022-10-19T06:33:58.971Z,1.70
2022-10-19T06:36:28.679Z,2.10
2022-10-19T06:38:56.599Z,2.15
2022-10-19T06:41:23.477Z,1.52
2022-10-19T06:43:51.142Z,2.40
2022-10-19T06:46:20.548Z,1.88
2022-10-19T06:48:54.896Z,2.20
2022-10-19T06:51:22.109Z,2.28
2022-10-19T06:53:51.700Z,2.20
2022-10-19T06:56:24.442Z,2.13
2022-10-19T06:58:50.829Z,2.65
2022-10-19T07:01:17.263Z,2.30
2022-10-19T07:03:43.725Z,1.65
2022-10-19T07:06:12.200Z,1.60
2022-10-19T07:08:40.627Z,1.57
2022-10-19T07:11:10.478Z,1.30
2022-10-19T07:13:36.942Z,1.20
2022-10-19T07:16:14.529Z,1.05
2022-10-19T07:18:44.643Z,1.17
2022-10-19T07:21:13.784Z,1.37
2022-10-19T07:23:42.024Z,0.65
2022-10-19T07:26:12.322Z,0.63
2022-10-19T07:28:40.219Z,0.80
2022-10-19T07:31:12.842Z,1.15
2022-10-19T07:33:39.831Z,0.90
2022-10-19T07:36:08.581Z,0.70
2022-10-19T07:38:35.649Z,0.75
2022-10-19T07:41:07.149Z,0.68
2022-10-19T07:43:34.264Z,0.90
2022-10-19T07:46:02.916Z,0.90
2022-10-19T07:48:29.766Z,0.63
2022-10-19T07:50:56.529Z,0.80
2022-10-19T07:53:23.754Z,0.70
2022-10-19T07:55:50.396Z,1.00
2022-10-19T07:58:16.852Z,0.83
2022-10-19T08:00:43.153Z,1.73
2022-10-19T08:03:57.150Z,1.48
2022-10-19T08:06:04.893Z,1.10
2022-10-19T08:08:31.676Z,1.15
2022-10-19T08:10:58.588Z,1.40
2022-10-19T08:13:24.997Z,0.98
2022-10-19T08:15:51.361Z,1.10
2022-10-19T08:18:18.414Z,1.30
2022-10-19T08:20:44.991Z,1.15
2022-10-19T08:23:11.300Z,1.30
2022-10-19T08:25:37.690Z,0.98
2022-10-19T08:28:04.195Z,1.00
2022-10-19T08:30:30.572Z,1.00
2022-10-19T08:32:56.956Z,0.70
2022-10-19T08:35:23.435Z,0.90
2022-10-19T08:37:50.076Z,0.82
2022-10-19T08:40:24.807Z,1.00
2022-10-19T08:43:02.168Z,1.00
2022-10-19T08:45:31.387Z,0.68
2022-10-19T08:48:03.432Z,0.80
2022-10-19T08:50:37.754Z,0.80
2022-10-19T08:53:11.161Z,0.70
2022-10-19T08:55:56.503Z,0.70
2022-10-19T08:58:41.096Z,0.80
2022-10-19T09:01:21.054Z,0.73
2022-10-19T09:03:56.123Z,0.93
2022-10-19T09:06:49.009Z,0.90
2022-10-19T09:09:18.535Z,0.88
2022-10-19T09:11:48.965Z,0.80
2022-10-19T09:14:28.077Z,1.40
2022-10-19T09:17:13.823Z,1.42
2022-10-19T09:19:40.298Z,0.70
2022-10-19T09:22:29.360Z,0.98
2022-10-19T09:25:02.125Z,1.27
2022-10-19T09:27:39.049Z,1.30
2022-10-19T09:30:16.105Z,0.77
2022-10-19T09:32:42.961Z,0.80
2022-10-19T09:35:25.745Z,0.90
2022-10-19T09:37:52.575Z,0.85
2022-10-19T09:40:25.762Z,1.00
2022-10-19T09:42:57.550Z,1.13
2022-10-19T09:45:31.812Z,1.15
2022-10-19T09:48:08.601Z,1.00
2022-10-19T09:50:43.623Z,0.93
2022-10-19T09:53:19.207Z,0.90
2022-10-19T09:56:07.603Z,0.77
2022-10-19T09:58:35.372Z,1.10
2022-10-19T10:01:02.976Z,0.70
2022-10-19T10:03:43.259Z,0.50
2022-10-19T10:06:14.418Z,0.60
2022-10-19T10:08:57.863Z,0.40
2022-10-19T10:11:29.741Z,0.70
2022-10-19T10:13:58.357Z,0.82
2022-10-19T10:16:30.233Z,0.45
2022-10-19T10:19:03.430Z,0.50
2022-10-19T10:21:35.694Z,0.70
2022-10-19T10:24:12.848Z,0.40
2022-10-19T10:27:01.317Z,0.40
2022-10-19T10:29:39.205Z,0.55
2022-10-19T10:32:13.953Z,0.40
2022-10-19T10:34:51.909Z,0.30
2022-10-19T10:37:22.149Z,0.20
2022-10-19T10:39:53.894Z,0.40
2022-10-19T10:42:35.194Z,0.38
2022-10-19T10:45:02.870Z,0.30
2022-10-19T10:47:30.757Z,0.30
2022-10-19T10:50:01.038Z,0.40
2022-10-19T10:52:34.139Z,0.28
2022-10-19T10:55:09.796Z,0.20
2022-10-19T10:57:43.078Z,0.57
2022-10-19T11:00:19.028Z,0.83
2022-10-19T11:02:49.134Z,0.40
2022-10-19T11:05:29.208Z,0.43
2022-10-19T11:08:04.691Z,0.50
2022-10-19T11:10:35.478Z,0.30
2022-10-19T11:13:15.366Z,0.30
2022-10-19T11:15:52.912Z,0.60
2022-10-19T11:18:25.206Z,0.40
2022-10-19T11:21:00.627Z,0.40
2022-10-19T11:23:49.047Z,0.30
2022-10-19T11:26:36.514Z,0.20
2022-10-19T11:29:37.304Z,0.20
2022-10-19T11:32:10.774Z,0.28
2022-10-19T11:34:43.020Z,0.28
2022-10-19T11:37:31.219Z,0.32
2022-10-19T11:40:27.014Z,0.20
2022-10-19T11:43:04.900Z,0.22
2022-10-19T11:45:34.809Z,0.38
2022-10-19T11:48:20.101Z,0.40
2022-10-19T11:51:20.788Z,0.45
2022-10-19T11:54:14.900Z,0.50
2022-10-19T11:57:03.354Z,0.38
2022-10-19T11:59:43.461Z,0.20
2022-10-19T12:02:46.985Z,0.25
2022-10-19T12:05:26.317Z,0.38
2022-10-19T12:08:09.580Z,0.30
2022-10-19T12:10:48.069Z,0.30
2022-10-19T12:13:25.344Z,0.30
2022-10-19T12:15:55.188Z,0.57
2022-10-19T12:18:43.343Z,0.68
2022-10-19T12:21:16.991Z,0.40
2022-10-19T12:23:46.869Z,0.20
2022-10-19T12:26:20.251Z,0.40
2022-10-19T12:28:57.758Z,0.30
2022-10-19T12:31:26.594Z,0.60
2022-10-19T12:34:07.076Z,0.60
2022-10-19T12:36:42.567Z,0.40
2022-10-19T12:39:25.266Z,0.50
2022-10-19T12:42:10.494Z,0.55
2022-10-19T12:44:53.864Z,0.70
2022-10-19T12:47:24.978Z,0.30
2022-10-19T12:49:53.128Z,0.52
2022-10-19T12:52:35.658Z,0.65
2022-10-19T12:55:17.542Z,0.47
2022-10-19T12:57:48.388Z,0.55
2022-10-19T13:00:32.455Z,0.83
2022-10-19T13:03:07.438Z,0.60
2022-10-19T13:05:35.804Z,1.00
2022-10-19T13:08:06.932Z,0.88
2022-10-19T13:10:35.696Z,0.50
2022-10-19T13:13:03.011Z,0.63
2022-10-19T13:15:35.625Z,0.60
2022-10-19T13:18:13.011Z,0.98
2022-10-19T13:23:06.897Z,0.70
2022-10-19T13:25:35.134Z,0.70
2022-10-19T13:28:08.045Z,0.80
2022-10-19T13:30:46.869Z,0.70
2022-10-19T13:33:25.596Z,1.10
2022-10-19T13:35:58.497Z,1.00
2022-10-19T13:38:26.457Z,1.00
2022-10-19T13:40:52.939Z,0.80
2022-10-19T13:43:25.826Z,1.00
2022-10-19T13:46:12.978Z,0.77
2022-10-19T13:49:01.377Z,0.70
2022-10-19T13:51:54.155Z,0.90
2022-10-19T13:54:45.205Z,0.60
2022-10-19T13:57:27.453Z,0.65
2022-10-19T14:00:17.086Z,0.93
2022-10-19T14:03:19.367Z,1.10
2022-10-19T14:05:58.394Z,0.90
2022-10-19T14:08:51.612Z,0.90
2022-10-19T14:11:21.561Z,0.60
2022-10-19T14:14:15.659Z,0.68
2022-10-19T14:16:54.454Z,0.60
2022-10-19T14:19:29.316Z,0.50
2022-10-19T14:22:02.984Z,0.70
2022-10-19T14:24:33.841Z,0.68
2022-10-19T14:27:03.970Z,0.60
2022-10-19T14:29:36.633Z,0.77
2022-10-19T14:32:03.711Z,0.50
2022-10-19T14:34:30.234Z,0.50
2022-10-19T14:36:57.413Z,0.63
2022-10-19T14:39:35.071Z,0.50
2022-10-19T14:42:06.728Z,0.47
2022-10-19T14:44:40.137Z,0.50
2022-10-19T14:47:17.201Z,0.40
2022-10-19T14:49:43.963Z,0.40
2022-10-19T14:52:17.014Z,0.68
2022-10-19T14:54:47.282Z,0.40
2022-10-19T14:57:26.711Z,0.50
2022-10-19T14:59:58.425Z,0.30
2022-10-19T15:02:38.737Z,0.60
2022-10-19T15:05:27.501Z,0.73
2022-10-19T15:07:54.829Z,1.13
2022-10-19T15:10:36.009Z,0.50
2022-10-19T15:13:06.406Z,0.80
2022-10-19T15:15:35.635Z,0.50
2022-10-19T15:18:02.034Z,0.38
2022-10-19T15:20:49.057Z,0.30
2022-10-19T15:23:48.992Z,0.50
2022-10-19T15:26:21.707Z,0.40
2022-10-19T15:28:50.460Z,0.60
2022-10-19T15:31:29.670Z,0.63
2022-10-19T15:33:59.461Z,0.75
2022-10-19T15:36:34.976Z,0.52
2022-10-19T15:39:24.566Z,0.70
2022-10-19T15:41:52.699Z,0.40
2022-10-19T15:44:32.520Z,0.63
2022-10-19T15:47:18.856Z,0.50
2022-10-19T15:49:51.143Z,0.50
2022-10-19T15:52:27.099Z,0.40
2022-10-19T15:54:56.299Z,0.43
2022-10-19T15:57:57.791Z,0.70
2022-10-19T16:00:32.427Z,0.60
2022-10-19T16:02:58.950Z,0.50
2022-10-19T16:05:26.467Z,0.55
2022-10-19T16:07:53.217Z,0.60
2022-10-19T16:13:17.388Z,0.52
2022-10-19T16:15:44.175Z,0.70
2022-10-19T16:18:11.437Z,0.70
2022-10-19T16:20:38.865Z,0.52
2022-10-19T16:23:09.068Z,0.70
2022-10-19T16:25:36.618Z,0.70
2022-10-19T16:28:02.972Z,0.80
2022-10-19T16:30:29.427Z,0.80
2022-10-19T16:32:55.818Z,0.85
2022-10-19T16:35:22.228Z,1.25
2022-10-19T16:37:48.725Z,1.70
2022-10-19T16:40:15.145Z,2.38
2022-10-19T16:42:41.569Z,1.70
2022-10-19T16:45:08.790Z,1.15
2022-10-19T16:47:35.157Z,1.30
2022-10-19T16:50:03.667Z,0.80
2022-10-19T16:52:32.924Z,1.10
2022-10-19T16:55:00.145Z,1.23
2022-10-19T16:57:26.459Z,1.05
2022-10-19T17:02:21.257Z,2.00
2022-10-19T17:04:47.617Z,1.42
2022-10-19T17:07:14.733Z,1.50
2022-10-19T17:09:42.612Z,1.33
2022-10-19T17:12:10.183Z,1.50
2022-10-19T17:14:38.388Z,1.50
2022-10-19T17:17:04.948Z,1.85
2022-10-19T17:19:31.830Z,1.80
2022-10-19T17:21:59.063Z,2.00
2022-10-19T17:24:26.010Z,1.60
2022-10-19T17:26:53.552Z,2.10
2022-10-19T17:29:21.432Z,2.00
2022-10-19T17:31:49.121Z,2.00
2022-10-19T17:34:16.754Z,2.30
2022-10-19T17:36:45.775Z,2.05
2022-10-19T17:39:25.799Z,2.10
2022-10-19T17:41:57.381Z,2.83
2022-10-19T17:44:23.969Z,2.83
2022-10-19T17:46:50.379Z,3.00
2022-10-19T17:49:17.286Z,2.60
2022-10-19T17:51:43.832Z,2.87
2022-10-19T17:54:12.851Z,2.75
2022-10-19T17:56:40.235Z,2.80
2022-10-19T17:59:08.817Z,2.97
2022-10-19T18:01:36.304Z,3.13
2022-10-19T18:04:02.982Z,3.00
2022-10-19T18:06:31.891Z,3.15
2022-10-19T18:09:00.808Z,2.92
2022-10-19T18:11:28.426Z,3.38
2022-10-19T18:13:57.771Z,3.03
2022-10-19T18:16:28.908Z,3.27
2022-10-19T18:18:56.898Z,3.00
2022-10-19T18:21:30.267Z,3.10
2022-10-19T18:23:59.161Z,3.35
2022-10-19T18:26:28.224Z,3.10
2022-10-19T18:28:55.878Z,3.27
2022-10-19T18:31:30.646Z,2.67
2022-10-19T18:34:05.704Z,2.72
2022-10-19T18:36:33.120Z,3.17
2022-10-19T18:39:03.876Z,3.08
2022-10-19T18:41:30.768Z,3.30
2022-10-19T18:44:03.637Z,2.78
2022-10-19T18:46:32.252Z,2.83
2022-10-19T18:49:02.732Z,2.95
2022-10-19T18:51:29.785Z,2.53
2022-10-19T18:53:56.189Z,2.57
2022-10-19T18:56:23.037Z,2.65
2022-10-19T18:58:49.814Z,2.83
2022-10-19T19:01:24.765Z,2.50
2022-10-19T19:03:53.064Z,2.50
2022-10-19T19:06:31.589Z,2.37
2022-10-19T19:08:59.922Z,2.25
2022-10-19T19:11:34.346Z,2.55
2022-10-19T19:14:23.980Z,2.45
2022-10-19T19:16:50.327Z,1.90
2022-10-19T19:19:18.720Z,2.40
2022-10-19T19:21:46.219Z,2.58
2022-10-19T19:24:21.724Z,2.40
2022-10-19T19:26:53.875Z,2.20
2022-10-19T19:29:21.607Z,2.10
2022-10-19T19:31:48.034Z,2.50
2022-10-19T19:34:14.486Z,2.50
2022-10-19T19:36:46.638Z,2.35
2022-10-19T19:39:21.570Z,2.10
2022-10-19T19:41:49.621Z,2.72
2022-10-19T19:44:16.644Z,2.20
2022-10-19T19:46:47.818Z,1.90
2022-10-19T19:49:14.571Z,1.83
2022-10-19T19:51:41.140Z,2.08
2022-10-19T19:54:07.552Z,2.00
2022-10-19T19:56:34.286Z,2.37
2022-10-19T19:59:03.488Z,2.10
2022-10-19T20:01:31.121Z,2.20
2022-10-19T20:03:59.070Z,2.05
2022-10-19T20:06:26.158Z,2.25
2022-10-19T20:08:53.583Z,2.10
2022-10-19T20:11:20.103Z,2.35
2022-10-19T20:13:46.705Z,2.38
2022-10-19T20:16:19.010Z,1.63
2022-10-19T20:18:47.578Z,2.00
2022-10-19T20:21:14.650Z,1.90
2022-10-19T20:23:45.294Z,2.47
2022-10-19T20:26:19.616Z,2.00
2022-10-19T20:28:46.738Z,2.25
2022-10-19T20:31:13.761Z,2.28
2022-10-19T20:33:41.836Z,2.40
2022-10-19T20:36:14.127Z,2.00
2022-10-19T20:38:44.894Z,2.40
2022-10-19T20:41:11.264Z,2.00
2022-10-19T20:43:37.793Z,2.78
2022-10-19T20:46:11.555Z,2.23
2022-10-19T20:48:39.219Z,2.60
2022-10-19T20:51:16.725Z,2.30
2022-10-19T20:53:46.349Z,1.88
2022-10-19T20:56:15.317Z,1.95
2022-10-19T20:58:42.849Z,2.20
2022-10-19T21:01:15.149Z,2.10
2022-10-19T21:03:49.356Z,1.80
2022-10-19T21:06:15.821Z,1.83
2022-10-19T21:08:42.824Z,1.90
2022-10-19T21:11:15.147Z,2.00
2022-10-19T21:13:42.035Z,2.05
2022-10-19T21:16:13.749Z,2.25
2022-10-19T21:18:41.052Z,2.17
2022-10-19T21:21:25.148Z,2.00
2022-10-19T21:23:54.984Z,1.97
2022-10-19T21:26:21.653Z,2.67
2022-10-19T21:28:50.416Z,2.20
2022-10-19T21:31:17.664Z,2.72
2022-10-19T21:33:44.885Z,2.03
2022-10-19T21:36:13.046Z,1.80
2022-10-19T21:38:40.103Z,2.22
2022-10-19T21:41:08.587Z,2.28
2022-10-19T21:43:35.342Z,2.05
2022-10-19T21:46:03.301Z,1.80
2022-10-19T21:48:30.553Z,2.10
2022-10-19T21:50:57.077Z,2.03
2022-10-19T21:53:24.014Z,2.22
2022-10-19T21:55:52.310Z,2.55
2022-10-19T21:58:22.890Z,2.38
2022-10-19T22:00:49.632Z,2.03
2022-10-19T22:03:18.937Z,1.83
2022-10-19T22:05:52.209Z,2.03
2022-10-19T22:08:18.581Z,2.28
2022-10-19T22:10:45.169Z,2.40
2022-10-19T22:13:11.547Z,2.80
2022-10-19T22:15:38.937Z,2.30
2022-10-19T22:18:05.265Z,2.58
2022-10-19T22:20:32.358Z,2.10
2022-10-19T22:22:58.677Z,2.20
2022-10-19T22:25:24.992Z,2.37
2022-10-19T22:27:51.371Z,2.13
2022-10-19T22:30:17.862Z,2.25
2022-10-19T22:32:44.231Z,1.98
2022-10-19T22:35:10.708Z,2.30
2022-10-19T22:37:37.042Z,2.30
2022-10-19T22:40:03.938Z,2.00
2022-10-19T22:42:30.348Z,2.35
2022-10-19T22:44:57.045Z,2.25
2022-10-19T22:47:23.564Z,2.25
2022-10-19T22:49:50.014Z,2.17
2022-10-19T22:52:16.609Z,2.22
2022-10-19T22:54:43.145Z,2.95
2022-10-19T22:57:11.698Z,2.03
2022-10-19T22:59:38.785Z,2.58
2022-10-19T23:02:05.191Z,2.13
2022-10-19T23:04:32.059Z,2.17
2022-10-19T23:06:58.518Z,2.17
2022-10-19T23:09:24.862Z,2.38
2022-10-19T23:11:51.618Z,2.20
2022-10-19T23:14:17.997Z,2.23
2022-10-19T23:16:44.394Z,2.25
2022-10-19T23:19:10.933Z,2.47
2022-10-19T23:21:37.262Z,2.60
2022-10-19T23:24:03.748Z,2.67
2022-10-19T23:26:30.094Z,2.50
2022-10-19T23:28:56.417Z,2.83
2022-10-19T23:31:26.392Z,2.25
2022-10-19T23:33:53.654Z,2.60
2022-10-19T23:36:25.657Z,2.42
2022-10-19T23:38:52.881Z,2.30
2022-10-19T23:41:20.714Z,2.33
2022-10-19T23:43:47.580Z,2.22
2022-10-19T23:46:14.591Z,2.92
2022-10-19T23:48:41.878Z,2.80
2022-10-19T23:51:14.617Z,2.70
2022-10-19T23:53:43.647Z,2.72
2022-10-19T23:56:16.844Z,2.25
2022-10-19T23:58:43.928Z,2.50
